หน้าหลัก
METAR-TAF:

METAR-TAF

ท่าอากาศยาน :

Wink, เทกซัส, สหรัฐอเมริกา

ละติจูด: 31-46-47N, ลองจิจูด: 103-12-05W, ความสูง: 860 ม.

การสังเกตสภาพอากาศปัจจุบัน

รายงานได้ทำขึ้นเมื่อ 3 ชั่วโมงและ 47 นาทีที่แล้ว ณ เวลา 05:53 UTC
ลม 9 นอตจากตะวันตกเฉียงใต้
อุณหภูมิ 28°C
ความชื้น 6%
ความกดอากาศ 1008 hPa
ทัศนวิสัย: 16.1 กม.
มีเมฆมาก มืดครึ้มที่ความสูง 3100 ฟุต

METAR: KINK 260553Z AUTO 22009KT 10SM OVC031 28/M13 A2976 RMK AO2 SLP022 T02831133 10383 20283 404000150 51015 $

เวลา: 04:40 (09:40 UTC)

การพยากรณ์

รายงานได้ทำขึ้นเมื่อ 4 ชั่วโมงและ 20 นาทีที่แล้ว ณ เวลา 05:20 UTC
การพยากรณ์มีผลตั้งแต่วันที่ 26 ณ เวลา 06 UTC จนถึงวันที่ 27 ณ เวลา 06 UTC
ลม 11 นอตจากตะวันตก/ตะวันตกเฉียงเหนือ
ทัศนวิสัย: 10 กม.
ท้องฟ้าแจ่มใส
จาก 27 ณ เวลา 0200 UTC
ลม 5 นอตจากตะวันตกเฉียงเหนือ
ทัศนวิสัย: 10 กม.
ท้องฟ้าแจ่มใส

TAF: KINK 260520Z 2606/2706 29011KT P6SM SKC FM270200 32005KT P6SM SKC

สังเกตการณ์สภาพอากาศและพยากรณ์อากาศของสนามบินมากกว่า 4000 แห่ง (รายงาน METAR และ TAF).

สถานีที่ดูได้จะแสดงไว้ด้วยจุดสีเหลืองและสีแดงบนแผนที่.

เลื่อนเมาส์ไปเหนือจุดเพื่อดูชื่อสถานี.

แล้วคลิกเพื่อดูสังเกตการณ์และการพยากรณ์สภาพอากาศ.

ในการเปลี่ยนแผนที่: คลิกที่ปุ่มสีเขียวที่มีกากบาทสีดำเพื่อซูมเข้า; ที่ปุ่มสีเขียวที่มีขีดเพื่อซูมออก; หรือที่ลูกศรสีเขียวเพื่อไปยังแผนที่ที่อยู่ติดกัน.


METAR-TAF: